createdAt,value
2018-05-08T00:01:47.527Z,5.50
2018-05-08T00:04:17.416Z,6.55
2018-05-08T00:06:48.396Z,7.37
2018-05-08T00:09:19.131Z,6.65
2018-05-08T00:11:48.523Z,5.82
2018-05-08T00:14:19.690Z,8.38
2018-05-08T00:16:51.083Z,4.93
2018-05-08T00:19:21.047Z,4.93
2018-05-08T00:21:52.390Z,5.10
2018-05-08T00:24:21.400Z,5.65
2018-05-08T00:26:50.556Z,6.50
2018-05-08T00:29:22.476Z,5.78
2018-05-08T00:31:51.439Z,6.93
2018-05-08T00:34:20.377Z,5.40
2018-05-08T00:36:51.885Z,6.65
2018-05-08T00:39:23.281Z,11.52
2018-05-08T00:41:54.425Z,7.40
2018-05-08T00:44:24.599Z,7.53
2018-05-08T00:46:54.324Z,5.50
2018-05-08T00:49:25.322Z,6.40
2018-05-08T00:51:56.664Z,6.78
2018-05-08T00:55:06.529Z,5.45
2018-05-08T00:57:35.988Z,8.13
2018-05-08T01:00:05.931Z,6.15
2018-05-08T01:02:36.564Z,6.00
2018-05-08T01:05:07.563Z,6.62
2018-05-08T01:07:38.519Z,6.82
2018-05-08T01:10:09.501Z,5.97
2018-05-08T01:12:39.377Z,6.32
2018-05-08T01:15:09.286Z,7.07
2018-05-08T01:17:41.526Z,6.18
2018-05-08T01:20:12.632Z,8.57
2018-05-08T01:22:42.046Z,8.93
2018-05-08T01:25:11.634Z,8.85
2018-05-08T01:27:41.035Z,6.62
2018-05-08T01:30:10.156Z,6.80
2018-05-08T01:32:39.533Z,7.72
2018-05-08T01:35:10.613Z,7.80
2018-05-08T01:37:39.738Z,7.50
2018-05-08T01:40:09.276Z,6.80
2018-05-08T01:42:39.178Z,6.10
2018-05-08T01:45:10.540Z,6.10
2018-05-08T01:47:40.744Z,6.47
2018-05-08T01:50:10.211Z,7.80
2018-05-08T01:52:39.352Z,7.60
2018-05-08T01:55:10.615Z,6.20
2018-05-08T01:57:41.464Z,8.82
2018-05-08T02:00:11.318Z,6.62
2018-05-08T02:02:40.525Z,7.25
2018-05-08T02:05:09.767Z,6.20
2018-05-08T02:07:40.485Z,6.20
2018-05-08T02:10:11.060Z,6.87
2018-05-08T02:12:42.403Z,7.00
2018-05-08T02:15:11.595Z,8.15
2018-05-08T02:17:42.513Z,7.85
2018-05-08T02:20:14.090Z,7.27
2018-05-08T02:22:43.197Z,6.35
2018-05-08T02:25:14.083Z,6.55
2018-05-08T02:27:44.501Z,7.35
2018-05-08T02:30:15.738Z,7.93
2018-05-08T02:32:45.159Z,7.25
2018-05-08T02:35:15.133Z,10.13
2018-05-08T02:37:45.790Z,8.83
2018-05-08T02:40:15.245Z,7.18
2018-05-08T02:42:44.459Z,7.07
2018-05-08T02:45:13.855Z,6.70
2018-05-08T02:47:43.822Z,9.48
2018-05-08T02:50:13.960Z,7.87
2018-05-08T02:52:44.979Z,7.15
2018-05-08T02:55:14.897Z,9.53
2018-05-08T02:57:46.893Z,16.05
2018-05-08T03:00:17.887Z,6.47
2018-05-08T03:02:47.551Z,12.25
2018-05-08T03:05:19.074Z,8.57
2018-05-08T03:07:48.269Z,7.78
2018-05-08T03:10:19.076Z,6.90
2018-05-08T03:12:49.253Z,7.03
2018-05-08T03:15:18.703Z,10.10
2018-05-08T03:17:49.272Z,7.90
2018-05-08T03:20:18.453Z,7.20
2018-05-08T03:22:47.516Z,7.30
2018-05-08T03:25:18.025Z,7.87
2018-05-08T03:27:48.905Z,7.32
2018-05-08T03:30:20.245Z,7.03
2018-05-08T03:32:51.207Z,8.33
2018-05-08T03:35:22.433Z,8.67
2018-05-08T03:37:53.257Z,8.82
2018-05-08T03:40:23.914Z,9.13
2018-05-08T03:42:53.099Z,9.03
2018-05-08T03:45:24.023Z,9.65
2018-05-08T03:47:53.199Z,7.33
2018-05-08T03:50:22.994Z,8.30
2018-05-08T03:52:54.210Z,7.20
2018-05-08T03:55:24.271Z,8.33
2018-05-08T03:57:54.245Z,8.60
2018-05-08T04:01:15.469Z,7.93
2018-05-08T04:04:40.682Z,8.70
2018-05-08T04:08:06.433Z,8.60
2018-05-08T04:10:36.379Z,7.35
2018-05-08T04:13:06.291Z,7.27
2018-05-08T04:15:35.667Z,7.20
2018-05-08T04:18:07.122Z,10.43
2018-05-08T04:20:38.013Z,7.57
2018-05-08T04:23:07.097Z,6.65
2018-05-08T04:25:38.088Z,6.50
2018-05-08T04:28:08.034Z,8.02
2018-05-08T04:30:37.215Z,8.10
2018-05-08T04:33:07.070Z,7.03
2018-05-08T04:35:38.393Z,8.07
2018-05-08T04:38:08.940Z,10.70
2018-05-08T04:40:38.168Z,7.35
2018-05-08T04:43:08.846Z,8.32
2018-05-08T04:45:38.456Z,7.75
2018-05-08T04:48:09.369Z,7.25
2018-05-08T04:50:39.748Z,8.52
2018-05-08T04:53:09.642Z,6.97
2018-05-08T04:55:39.231Z,8.35
2018-05-08T04:58:08.344Z,7.60
2018-05-08T05:00:39.267Z,10.55
2018-05-08T05:03:10.223Z,13.43
2018-05-08T05:05:39.102Z,9.05
2018-05-08T05:08:08.957Z,9.30
2018-05-08T05:10:39.285Z,8.20
2018-05-08T05:13:08.632Z,8.50
2018-05-08T05:15:39.491Z,10.73
2018-05-08T05:18:09.030Z,9.27
2018-05-08T05:20:39.667Z,7.57
2018-05-08T05:23:10.827Z,11.95
2018-05-08T05:25:41.664Z,10.35
2018-05-08T05:28:10.719Z,16.87
2018-05-08T05:30:40.319Z,10.68
2018-05-08T05:33:09.443Z,10.98
2018-05-08T05:35:38.486Z,9.57
2018-05-08T05:38:09.149Z,11.40
2018-05-08T05:40:43.435Z,7.90
2018-05-08T05:43:13.945Z,10.60
2018-05-08T05:45:43.704Z,8.10
2018-05-08T05:48:14.770Z,8.00
2018-05-08T05:50:43.814Z,11.20
2018-05-08T05:53:14.584Z,7.28
2018-05-08T05:55:44.985Z,8.65
2018-05-08T05:58:15.645Z,7.70
2018-05-08T06:00:44.805Z,7.40
2018-05-08T06:03:16.569Z,10.43
2018-05-08T06:05:47.987Z,13.10
2018-05-08T06:08:17.104Z,8.95
2018-05-08T06:10:46.730Z,8.32
2018-05-08T06:13:17.462Z,8.68
2018-05-08T06:15:48.363Z,7.25
2018-05-08T06:18:17.937Z,7.28
2018-05-08T06:20:48.825Z,6.97
2018-05-08T06:23:19.534Z,8.48
2018-05-08T06:25:48.699Z,8.20
2018-05-08T06:28:19.302Z,10.57
2018-05-08T06:30:50.631Z,10.52
2018-05-08T06:33:19.890Z,10.10
2018-05-08T06:35:50.883Z,8.18
2018-05-08T06:38:20.330Z,9.50
2018-05-08T06:40:50.389Z,9.30
2018-05-08T06:43:21.052Z,7.87
2018-05-08T06:45:51.682Z,8.32
2018-05-08T06:48:21.314Z,12.32
2018-05-08T06:50:52.220Z,8.07
2018-05-08T06:53:21.563Z,13.10
2018-05-08T06:55:50.792Z,8.63
2018-05-08T06:58:19.821Z,8.25
2018-05-08T07:00:50.718Z,11.05
2018-05-08T07:03:21.380Z,8.23
2018-05-08T07:05:50.570Z,11.77
2018-05-08T07:08:20.151Z,11.45
2018-05-08T07:10:49.960Z,7.95
2018-05-08T07:13:20.751Z,9.95
2018-05-08T07:15:51.867Z,11.30
2018-05-08T07:18:22.123Z,7.07
2018-05-08T07:20:51.201Z,12.90
2018-05-08T07:23:22.512Z,8.15
2018-05-08T07:25:53.449Z,8.00
2018-05-08T07:28:25.084Z,14.10
2018-05-08T07:30:54.567Z,10.48
2018-05-08T07:33:26.000Z,7.20
2018-05-08T07:35:57.383Z,7.37
2018-05-08T07:38:28.759Z,7.60
2018-05-08T07:40:57.959Z,9.35
2018-05-08T07:43:27.071Z,7.62
2018-05-08T07:45:58.434Z,8.55
2018-05-08T07:48:29.178Z,7.18
2018-05-08T07:50:58.527Z,9.70
2018-05-08T07:53:27.682Z,6.57
2018-05-08T07:55:58.828Z,8.52
2018-05-08T07:58:27.884Z,8.95
2018-05-08T08:00:58.826Z,8.13
2018-05-08T08:03:28.452Z,7.25
2018-05-08T08:05:58.944Z,7.90
2018-05-08T08:08:29.618Z,7.78
2018-05-08T08:11:00.835Z,9.25
2018-05-08T08:13:31.482Z,9.15
2018-05-08T08:16:02.404Z,7.57
2018-05-08T08:18:32.727Z,11.18
2018-05-08T08:21:01.543Z,7.90
2018-05-08T08:23:32.434Z,13.95
2018-05-08T08:26:04.404Z,11.85
2018-05-08T08:28:33.513Z,9.93
2018-05-08T08:31:02.724Z,10.45
2018-05-08T08:33:33.577Z,8.10
2018-05-08T08:36:03.389Z,10.88
2018-05-08T08:38:34.276Z,8.68
2018-05-08T08:41:03.473Z,11.43
2018-05-08T08:43:34.310Z,13.85
2018-05-08T08:46:05.231Z,11.70
2018-05-08T08:48:36.062Z,12.25
2018-05-08T08:51:05.393Z,9.57
2018-05-08T08:53:34.482Z,12.68
2018-05-08T08:56:03.872Z,11.90
2018-05-08T08:58:32.892Z,10.80
2018-05-08T09:01:01.681Z,11.23
2018-05-08T09:03:31.535Z,12.65
2018-05-08T09:06:02.406Z,10.05
2018-05-08T09:08:31.233Z,9.48
2018-05-08T09:11:03.014Z,13.73
2018-05-08T09:13:34.031Z,9.68
2018-05-08T09:16:04.784Z,9.50
2018-05-08T09:18:34.585Z,12.25
2018-05-08T09:21:05.480Z,9.85
2018-05-08T09:23:36.094Z,9.70
2018-05-08T09:26:05.200Z,12.25
2018-05-08T09:28:34.486Z,10.20
2018-05-08T09:31:04.639Z,11.82
2018-05-08T09:33:36.006Z,13.20
2018-05-08T09:36:04.863Z,11.07
2018-05-08T09:38:34.163Z,11.88
2018-05-08T09:41:03.885Z,11.77
2018-05-08T09:43:34.712Z,14.27
2018-05-08T09:46:05.357Z,11.50
2018-05-08T09:48:35.334Z,13.43
2018-05-08T09:51:04.689Z,10.63
2018-05-08T09:53:34.014Z,13.02
2018-05-08T09:56:02.901Z,11.50
2018-05-08T09:58:32.102Z,13.43
2018-05-08T10:01:01.219Z,14.40
2018-05-08T10:03:30.479Z,17.87
2018-05-08T10:06:00.538Z,15.45
2018-05-08T10:08:30.485Z,11.75
2018-05-08T10:10:59.995Z,11.23
2018-05-08T10:13:29.361Z,11.32
2018-05-08T10:15:58.671Z,15.50
2018-05-08T10:18:27.822Z,12.90
2018-05-08T10:20:58.690Z,12.10
2018-05-08T10:23:28.499Z,16.23
2018-05-08T10:25:58.864Z,12.18
2018-05-08T10:28:28.267Z,13.65
2018-05-08T10:30:59.595Z,13.48
2018-05-08T10:33:29.529Z,13.05
2018-05-08T10:35:58.863Z,13.50
2018-05-08T10:38:30.218Z,11.98
2018-05-08T10:40:59.032Z,10.43
2018-05-08T10:43:29.428Z,14.25
2018-05-08T10:46:00.419Z,12.43
2018-05-08T10:48:31.066Z,9.68
2018-05-08T10:51:01.073Z,13.52
2018-05-08T10:53:31.931Z,12.02
2018-05-08T10:56:01.110Z,9.55
2018-05-08T10:58:31.544Z,12.18
2018-05-08T11:01:00.849Z,9.20
2018-05-08T11:03:31.684Z,11.52
2018-05-08T11:06:00.527Z,12.43
2018-05-08T11:08:29.940Z,11.43
2018-05-08T11:11:01.134Z,6.80
2018-05-08T11:13:31.002Z,7.12
2018-05-08T11:16:01.840Z,7.07
2018-05-08T11:18:31.784Z,8.68
2018-05-08T11:21:00.818Z,7.93
2018-05-08T11:23:31.178Z,5.72
2018-05-08T11:26:00.577Z,5.25
2018-05-08T11:28:29.362Z,7.72
2018-05-08T11:30:59.930Z,4.55
2018-05-08T11:33:30.756Z,5.03
2018-05-08T11:36:01.158Z,4.32
2018-05-08T11:38:30.528Z,6.57
2018-05-08T11:40:59.905Z,4.97
2018-05-08T11:43:31.018Z,5.32
2018-05-08T11:46:00.132Z,7.53
2018-05-08T11:48:30.990Z,10.13
2018-05-08T11:51:00.402Z,7.43
2018-05-08T11:53:30.952Z,6.93
2018-05-08T11:56:02.160Z,8.25
2018-05-08T11:58:33.189Z,7.47
2018-05-08T12:01:03.998Z,11.20
2018-05-08T12:03:33.106Z,4.45
2018-05-08T12:06:03.010Z,4.00
2018-05-08T12:08:32.339Z,4.65
2018-05-08T12:11:01.820Z,6.45
2018-05-08T12:13:31.105Z,6.53
2018-05-08T12:16:01.008Z,4.50
2018-05-08T12:18:30.138Z,6.80
2018-05-08T12:20:59.274Z,7.93
2018-05-08T12:23:30.148Z,5.47
2018-05-08T12:25:59.030Z,6.10
2018-05-08T12:28:28.980Z,5.78
2018-05-08T12:30:58.072Z,6.75
2018-05-08T12:33:27.538Z,11.30
2018-05-08T12:35:57.421Z,4.82
2018-05-08T12:38:27.070Z,5.90
2018-05-08T12:40:56.369Z,7.35
2018-05-08T12:43:27.279Z,8.00
2018-05-08T12:45:56.453Z,7.78
2018-05-08T12:48:25.507Z,7.35
2018-05-08T12:50:56.126Z,9.30
2018-05-08T12:53:26.474Z,7.12
2018-05-08T12:55:55.812Z,5.87
2018-05-08T12:58:24.947Z,8.25
2018-05-08T13:00:55.895Z,7.40
2018-05-08T13:03:25.553Z,6.60
2018-05-08T13:05:54.668Z,9.18
2018-05-08T13:08:23.965Z,9.07
2018-05-08T13:10:53.359Z,8.02
2018-05-08T13:13:24.225Z,8.30
2018-05-08T13:15:53.259Z,8.65
2018-05-08T13:18:24.471Z,8.18
2018-05-08T13:20:53.390Z,5.43
2018-05-08T13:23:24.335Z,4.57
2018-05-08T13:25:53.386Z,4.15
2018-05-08T13:28:23.082Z,5.07
2018-05-08T13:30:51.913Z,5.55
2018-05-08T13:33:22.647Z,9.88
2018-05-08T13:35:53.559Z,8.70
2018-05-08T13:38:24.919Z,6.70
2018-05-08T13:40:55.812Z,3.92
2018-05-08T13:43:25.142Z,7.60
2018-05-08T13:45:54.194Z,8.65
2018-05-08T13:48:24.793Z,7.72
2018-05-08T13:50:56.040Z,9.48
2018-05-08T13:53:26.760Z,6.03
2018-05-08T13:55:56.104Z,6.05
2018-05-08T13:58:25.733Z,7.18
2018-05-08T14:00:54.916Z,9.00
2018-05-08T14:03:24.143Z,7.70
2018-05-08T14:05:53.457Z,5.25
2018-05-08T14:08:24.201Z,4.10
2018-05-08T14:10:54.884Z,6.80
2018-05-08T14:13:24.453Z,7.55
2018-05-08T14:15:53.747Z,5.78
2018-05-08T14:18:25.343Z,5.57
2018-05-08T14:20:54.398Z,3.80
2018-05-08T14:23:23.676Z,4.60
2018-05-08T14:25:53.455Z,6.40
2018-05-08T14:28:22.029Z,4.82
2018-05-08T14:30:51.108Z,4.22
2018-05-08T14:33:20.400Z,5.07
2018-05-08T14:35:49.591Z,5.57
2018-05-08T14:38:18.941Z,4.45
2018-05-08T14:40:50.132Z,6.03
2018-05-08T14:43:21.379Z,5.18
2018-05-08T14:45:52.685Z,4.95
2018-05-08T14:48:23.307Z,6.47
2018-05-08T14:50:52.310Z,7.65
2018-05-08T14:53:22.864Z,7.62
2018-05-08T14:55:53.703Z,4.68
2018-05-08T14:58:22.485Z,4.72
2018-05-08T15:00:52.199Z,4.78
2018-05-08T15:03:23.267Z,4.70
2018-05-08T15:05:52.366Z,4.62
2018-05-08T15:08:21.656Z,3.50
2018-05-08T15:10:51.393Z,3.92
2018-05-08T15:13:20.240Z,5.40
2018-05-08T15:15:50.856Z,4.60
2018-05-08T15:18:20.193Z,3.50
2018-05-08T15:20:50.793Z,3.00
2018-05-08T15:23:21.357Z,4.53
2018-05-08T15:25:49.966Z,5.55
2018-05-08T15:28:19.002Z,4.85
2018-05-08T15:30:48.060Z,6.50
2018-05-08T15:33:17.353Z,4.53
2018-05-08T15:35:46.632Z,4.72
2018-05-08T15:38:17.013Z,5.05
2018-05-08T15:40:46.107Z,4.22
2018-05-08T15:43:17.564Z,4.80
2018-05-08T15:45:48.089Z,4.68
2018-05-08T15:48:17.554Z,3.35
2018-05-08T15:50:46.639Z,4.23
2018-05-08T15:53:17.885Z,3.33
2018-05-08T15:55:48.308Z,3.50
2018-05-08T15:58:19.308Z,4.53
2018-05-08T16:00:48.343Z,5.50
2018-05-08T16:03:17.657Z,7.03
2018-05-08T16:05:46.781Z,7.12
2018-05-08T16:08:16.436Z,3.20
2018-05-08T16:10:47.285Z,7.78
2018-05-08T16:13:16.371Z,6.53
2018-05-08T16:15:46.243Z,2.95
2018-05-08T16:18:15.292Z,4.60
2018-05-08T16:20:44.568Z,3.47
2018-05-08T16:23:14.281Z,2.97
2018-05-08T16:25:43.131Z,5.55
2018-05-08T16:28:13.770Z,6.20
2018-05-08T16:30:43.089Z,3.87
2018-05-08T16:33:13.036Z,2.37
2018-05-08T16:35:43.615Z,8.55
2018-05-08T16:38:12.736Z,4.18
2018-05-08T16:40:43.581Z,5.25
2018-05-08T16:43:14.173Z,2.87
2018-05-08T16:45:43.009Z,2.50
2018-05-08T16:48:14.184Z,3.20
2018-05-08T16:50:43.240Z,5.57
2018-05-08T16:53:14.046Z,3.03
2018-05-08T16:55:43.434Z,3.65
2018-05-08T16:58:12.969Z,3.60
2018-05-08T17:00:42.829Z,4.25
2018-05-08T17:03:11.697Z,4.32
2018-05-08T17:05:41.029Z,7.72
2018-05-08T17:08:10.881Z,5.45
2018-05-08T17:10:42.338Z,5.95
2018-05-08T17:13:13.259Z,4.55
2018-05-08T17:15:42.539Z,3.20
2018-05-08T17:18:13.484Z,5.25
2018-05-08T17:20:43.936Z,8.27
2018-05-08T17:23:14.766Z,3.92
2018-05-08T17:25:44.041Z,3.80
2018-05-08T17:28:15.097Z,4.62
2018-05-08T17:30:45.597Z,6.03
2018-05-08T17:33:15.599Z,4.62
2018-05-08T17:35:46.107Z,6.57
2018-05-08T17:38:15.264Z,5.32
2018-05-08T17:40:45.843Z,4.32
2018-05-08T17:43:16.229Z,3.75
2018-05-08T17:45:46.850Z,3.78
2018-05-08T17:48:15.893Z,5.30
2018-05-08T17:50:45.226Z,4.57
2018-05-08T17:53:15.713Z,5.93
2018-05-08T17:55:44.854Z,3.47
2018-05-08T17:58:15.699Z,4.53
2018-05-08T18:00:46.262Z,6.35
2018-05-08T18:03:17.655Z,3.80
2018-05-08T18:05:48.246Z,3.25
2018-05-08T18:08:17.953Z,4.87
2018-05-08T18:10:48.891Z,8.55
2018-05-08T18:13:19.804Z,7.97
2018-05-08T18:15:48.896Z,8.07
2018-05-08T18:18:18.465Z,7.90
2018-05-08T18:20:47.947Z,7.80
2018-05-08T18:23:18.948Z,4.37
2018-05-08T18:25:48.581Z,4.03
2018-05-08T18:28:19.426Z,4.20
2018-05-08T18:30:48.776Z,5.30
2018-05-08T18:33:18.103Z,5.43
2018-05-08T18:35:48.756Z,5.32
2018-05-08T18:38:19.479Z,4.65
2018-05-08T18:40:48.921Z,3.05
2018-05-08T18:43:18.224Z,3.70
2018-05-08T18:45:49.126Z,3.12
2018-05-08T18:48:19.835Z,4.22
2018-05-08T18:50:50.590Z,3.00
2018-05-08T18:53:19.955Z,5.70
2018-05-08T18:55:49.041Z,5.03
2018-05-08T18:58:18.167Z,6.12
2018-05-08T19:00:58.346Z,15.02
2018-05-08T19:03:27.522Z,7.85
2018-05-08T19:05:56.944Z,8.07
2018-05-08T19:08:26.195Z,5.93
2018-05-08T19:11:14.404Z,8.73
2018-05-08T19:13:43.772Z,9.63
2018-05-08T19:16:12.902Z,8.88
2018-05-08T19:19:01.210Z,13.60
2018-05-08T19:21:30.535Z,9.88
2018-05-08T19:24:18.437Z,7.22
2018-05-08T19:26:48.304Z,3.53
2018-05-08T19:29:52.057Z,5.20
2018-05-08T19:32:21.421Z,6.25
2018-05-08T19:35:09.668Z,4.50
2018-05-08T19:38:00.782Z,9.27
2018-05-08T19:40:32.026Z,10.18
2018-05-08T19:43:02.694Z,6.12
2018-05-08T19:45:31.812Z,6.62
2018-05-08T19:48:01.728Z,20.90
2018-05-08T19:50:31.025Z,6.93
2018-05-08T19:53:01.924Z,6.43
2018-05-08T19:55:32.012Z,4.90
2018-05-08T19:58:01.018Z,4.45
2018-05-08T20:00:30.890Z,7.45
2018-05-08T20:03:01.978Z,6.00
2018-05-08T20:05:31.947Z,7.05
2018-05-08T20:08:02.228Z,4.43
2018-05-08T20:10:31.549Z,4.18
2018-05-08T20:13:00.754Z,4.97
2018-05-08T20:15:30.096Z,6.65
2018-05-08T20:18:01.305Z,3.92
2018-05-08T20:20:31.133Z,4.50
2018-05-08T20:23:02.142Z,10.27
2018-05-08T20:25:34.233Z,7.07
2018-05-08T20:28:04.460Z,5.90
2018-05-08T20:30:33.605Z,5.82
2018-05-08T20:33:02.745Z,8.57
2018-05-08T20:35:33.544Z,5.15
2018-05-08T20:38:03.514Z,8.23
2018-05-08T20:40:34.329Z,6.22
2018-05-08T20:43:04.699Z,3.85
2018-05-08T20:45:35.581Z,5.55
2018-05-08T20:48:07.483Z,5.43
2018-05-08T20:50:37.397Z,4.95
2018-05-08T20:53:08.306Z,6.28
2018-05-08T20:55:37.800Z,6.37
2018-05-08T20:58:07.126Z,5.62
2018-05-08T21:00:36.272Z,6.50
2018-05-08T21:03:07.806Z,4.93
2018-05-08T21:05:37.135Z,5.97
2018-05-08T21:08:08.510Z,6.28
2018-05-08T21:10:38.406Z,7.90
2018-05-08T21:13:07.604Z,8.32
2018-05-08T21:15:38.591Z,5.90
2018-05-08T21:18:08.465Z,4.60
2018-05-08T21:20:38.271Z,13.25
2018-05-08T21:23:09.755Z,6.87
2018-05-08T21:25:39.672Z,6.70
2018-05-08T21:28:27.816Z,8.13
2018-05-08T21:31:16.704Z,7.55
2018-05-08T21:33:46.187Z,5.35
2018-05-08T21:36:17.602Z,9.23
2018-05-08T21:38:46.751Z,13.20
2018-05-08T21:41:16.047Z,8.55
2018-05-08T21:43:47.073Z,8.23
2018-05-08T21:46:18.078Z,10.05
2018-05-08T21:48:49.110Z,11.30
2018-05-08T21:51:19.457Z,11.88
2018-05-08T21:53:49.347Z,7.12
2018-05-08T21:56:19.957Z,8.40
2018-05-08T21:58:51.353Z,10.73
2018-05-08T22:01:22.549Z,9.45
2018-05-08T22:03:54.058Z,10.07
2018-05-08T22:06:24.853Z,10.35
2018-05-08T22:08:55.525Z,10.00
2018-05-08T22:11:24.657Z,9.10
2018-05-08T22:13:53.835Z,9.05
2018-05-08T22:16:23.224Z,12.55
2018-05-08T22:18:52.571Z,10.07
2018-05-08T22:21:21.920Z,15.13
2018-05-08T22:23:51.046Z,7.90
2018-05-08T22:26:21.932Z,9.38
2018-05-08T22:28:51.249Z,8.25
2018-05-08T22:31:23.201Z,7.82
2018-05-08T22:33:54.551Z,7.20
2018-05-08T22:36:24.352Z,8.93
2018-05-08T22:38:53.755Z,14.38
2018-05-08T22:41:23.383Z,10.35
2018-05-08T22:43:54.278Z,11.30
2018-05-08T22:46:23.650Z,10.52
2018-05-08T22:48:54.152Z,8.85
2018-05-08T22:51:25.477Z,9.02
2018-05-08T22:53:56.537Z,7.37
2018-05-08T22:56:27.537Z,10.52
2018-05-08T22:58:58.855Z,7.55
2018-05-08T23:01:28.502Z,11.77
2018-05-08T23:03:57.851Z,6.82
2018-05-08T23:06:28.453Z,7.15
2018-05-08T23:08:57.594Z,7.05
2018-05-08T23:11:28.279Z,10.30
2018-05-08T23:13:57.315Z,8.57
2018-05-08T23:16:28.248Z,8.23
2018-05-08T23:18:58.563Z,9.00
2018-05-08T23:21:29.548Z,7.90
2018-05-08T23:24:00.617Z,8.18
2018-05-08T23:26:31.896Z,10.65
2018-05-08T23:29:02.764Z,9.43
2018-05-08T23:31:31.909Z,11.77
2018-05-08T23:34:01.344Z,12.98
2018-05-08T23:36:30.743Z,11.70
2018-05-08T23:39:01.969Z,8.95
2018-05-08T23:41:31.299Z,10.23
2018-05-08T23:44:02.162Z,14.75
2018-05-08T23:46:32.999Z,10.60
2018-05-08T23:49:02.924Z,10.43
2018-05-08T23:51:33.784Z,8.10
2018-05-08T23:54:03.619Z,9.60
2018-05-08T23:56:34.360Z,8.40
2018-05-08T23:59:05.042Z,13.50
